Erie, Pennsylvania
Current Conditions -  °F | °C
As of 7:09 AM on Sunday 25 Jan 2015 (Local Time) from KERI Reporting Station
Light Snow Light Snow  
Wind Chill: 17°   Ceiling: 3000
Heat Index: 27°   Visibility: 3mi
Dew Point: 22°   Wind: 10mph
Humidity: 81%   Direction: 20°NNE
Pressure: 29.8"   Gusts: NA
Location:  42.13°N, 80.08°W
Report Text: KERI 251209Z 02009KT 3SM -SN OVC030 M03/M06 A2980 RMK AO2 P0001 T10281056
Loading
Personal Weather Stations






























Interactive Weather Map New forecast layout! Learn more

10-Day Weather Forecast

Advertisements
Track Severe Weather on mobile